createdAt,value
2023-04-26T00:02:02.172Z,7.80
2023-04-26T00:04:29.526Z,7.80
2023-04-26T00:06:56.898Z,7.80
2023-04-26T00:09:23.809Z,7.80
2023-04-26T00:11:51.086Z,7.80
2023-04-26T00:14:18.013Z,7.80
2023-04-26T00:16:45.015Z,7.90
2023-04-26T00:19:12.718Z,7.90
2023-04-26T00:21:40.346Z,7.90
2023-04-26T00:24:07.852Z,7.90
2023-04-26T00:26:35.041Z,7.80
2023-04-26T00:29:04.087Z,7.80
2023-04-26T00:31:31.175Z,7.80
2023-04-26T00:33:58.155Z,7.80
2023-04-26T00:36:25.088Z,7.70
2023-04-26T00:38:53.093Z,7.80
2023-04-26T00:41:20.188Z,7.80
2023-04-26T00:43:47.129Z,7.70
2023-04-26T00:46:13.977Z,7.70
2023-04-26T00:48:41.448Z,7.70
2023-04-26T00:51:08.409Z,7.70
2023-04-26T00:53:35.617Z,7.70
2023-04-26T00:56:02.539Z,7.60
2023-04-26T00:58:30.014Z,7.60
2023-04-26T01:00:57.013Z,7.60
2023-04-26T01:03:24.452Z,7.50
2023-04-26T01:05:51.526Z,7.50
2023-04-26T01:08:20.890Z,7.50
2023-04-26T01:10:49.133Z,7.50
2023-04-26T01:13:16.908Z,7.50
2023-04-26T01:15:47.670Z,7.40
2023-04-26T01:18:15.099Z,7.40
2023-04-26T01:20:43.326Z,7.40
2023-04-26T01:23:11.739Z,7.40
2023-04-26T01:25:39.258Z,7.40
2023-04-26T01:28:06.324Z,7.40
2023-04-26T01:30:33.259Z,7.40
2023-04-26T01:33:03.490Z,7.40
2023-04-26T01:35:30.531Z,7.40
2023-04-26T01:37:57.321Z,7.40
2023-04-26T01:40:24.221Z,7.40
2023-04-26T01:42:51.097Z,7.40
2023-04-26T01:45:18.106Z,7.40
2023-04-26T01:48:03.484Z,7.40
2023-04-26T01:50:32.428Z,7.40
2023-04-26T01:52:59.211Z,7.30
2023-04-26T01:55:26.158Z,7.30
2023-04-26T01:57:52.959Z,7.30
2023-04-26T02:00:20.316Z,7.30
2023-04-26T02:02:49.679Z,7.20
2023-04-26T02:05:16.747Z,7.20
2023-04-26T02:07:43.598Z,7.20
2023-04-26T02:10:10.659Z,7.20
2023-04-26T02:12:37.660Z,7.20
2023-04-26T02:15:05.044Z,7.20
2023-04-26T02:17:32.991Z,7.20
2023-04-26T02:19:59.941Z,7.20
2023-04-26T02:22:26.991Z,7.20
2023-04-26T02:24:54.167Z,7.20
2023-04-26T02:27:27.737Z,7.10
2023-04-26T02:29:54.780Z,7.20
2023-04-26T02:32:21.650Z,7.20
2023-04-26T02:34:48.554Z,7.20
2023-04-26T02:37:15.478Z,7.20
2023-04-26T02:39:42.359Z,7.20
2023-04-26T02:42:10.761Z,7.10
2023-04-26T02:44:39.439Z,7.10
2023-04-26T02:47:06.359Z,7.10
2023-04-26T02:49:33.294Z,7.10
2023-04-26T02:52:00.143Z,7.00
2023-04-26T02:54:27.241Z,7.10
2023-04-26T02:56:55.316Z,7.00
2023-04-26T02:59:22.329Z,7.00
2023-04-26T03:01:49.210Z,6.90
2023-04-26T03:04:17.551Z,6.90
2023-04-26T03:06:44.950Z,6.90
2023-04-26T03:09:11.932Z,6.90
2023-04-26T03:11:38.971Z,6.90
2023-04-26T03:14:05.912Z,6.90
2023-04-26T03:16:42.396Z,6.90
2023-04-26T03:19:09.489Z,6.80
2023-04-26T03:21:37.922Z,6.80
2023-04-26T03:24:04.992Z,6.80
2023-04-26T03:26:31.837Z,6.80
2023-04-26T03:28:58.847Z,6.80
2023-04-26T03:31:26.104Z,6.70
2023-04-26T03:33:53.166Z,6.70
2023-04-26T03:36:20.755Z,6.70
2023-04-26T03:38:47.626Z,6.70
2023-04-26T03:41:16.748Z,6.70
2023-04-26T03:43:43.652Z,6.70
2023-04-26T03:46:10.608Z,6.70
2023-04-26T03:48:37.513Z,6.60
2023-04-26T03:51:04.476Z,6.70
2023-04-26T03:53:32.396Z,6.60
2023-04-26T03:55:59.655Z,6.60
2023-04-26T03:58:26.767Z,6.60
2023-04-26T04:00:58.379Z,6.60
2023-04-26T04:03:25.499Z,6.60
2023-04-26T04:05:52.800Z,6.60
2023-04-26T04:08:19.608Z,6.60
2023-04-26T04:10:46.448Z,6.60
2023-04-26T04:13:13.710Z,6.60
2023-04-26T04:15:41.663Z,6.60
2023-04-26T04:18:09.142Z,6.60
2023-04-26T04:20:36.387Z,6.60
2023-04-26T04:23:06.268Z,6.60
2023-04-26T04:25:33.371Z,6.60
2023-04-26T04:28:03.154Z,6.60
2023-04-26T04:30:30.845Z,6.60
2023-04-26T04:33:00.189Z,6.60
2023-04-26T04:35:29.193Z,6.60
2023-04-26T04:37:57.128Z,6.60
2023-04-26T04:40:25.881Z,6.60
2023-04-26T04:42:53.469Z,6.60
2023-04-26T04:45:22.117Z,6.60
2023-04-26T04:47:51.099Z,6.60
2023-04-26T04:50:17.959Z,6.60
2023-04-26T04:52:44.950Z,6.60
2023-04-26T04:55:12.559Z,6.60
2023-04-26T04:57:41.464Z,6.60
2023-04-26T05:00:10.724Z,6.60
2023-04-26T05:02:44.229Z,6.60
2023-04-26T05:05:11.427Z,6.70
2023-04-26T05:07:38.571Z,6.70
2023-04-26T05:10:06.341Z,6.70
2023-04-26T05:12:33.694Z,6.70
2023-04-26T05:15:01.227Z,6.70
2023-04-26T05:17:28.277Z,6.80
2023-04-26T05:19:56.868Z,6.80
2023-04-26T05:22:23.716Z,6.90
2023-04-26T05:24:51.013Z,6.90
2023-04-26T05:27:18.725Z,6.90
2023-04-26T05:29:52.671Z,7.00
2023-04-26T05:32:36.311Z,7.00
2023-04-26T05:35:24.332Z,7.10
2023-04-26T05:37:51.795Z,7.10
2023-04-26T05:40:18.882Z,7.10
2023-04-26T05:42:45.913Z,7.10
2023-04-26T05:45:13.259Z,7.10
2023-04-26T05:47:40.640Z,7.20
2023-04-26T05:50:08.990Z,7.20
2023-04-26T05:52:36.006Z,7.20
2023-04-26T05:55:04.301Z,7.20
2023-04-26T05:57:31.246Z,7.30
2023-04-26T05:59:58.204Z,7.30
2023-04-26T06:02:26.431Z,7.40
2023-04-26T06:04:54.140Z,7.50
2023-04-26T06:07:21.449Z,7.60
2023-04-26T06:09:48.653Z,7.70
2023-04-26T06:12:16.747Z,7.80
2023-04-26T06:14:45.387Z,7.90
2023-04-26T06:17:16.704Z,8.00
2023-04-26T06:19:43.673Z,8.20
2023-04-26T06:22:11.038Z,8.30
2023-04-26T06:24:38.642Z,8.40
2023-04-26T06:27:05.422Z,8.40
2023-04-26T06:29:35.520Z,8.50
2023-04-26T06:32:03.031Z,8.50
2023-04-26T06:34:30.426Z,8.60
2023-04-26T06:36:57.312Z,8.60
2023-04-26T06:39:25.744Z,8.60
2023-04-26T06:41:52.711Z,8.60
2023-04-26T06:44:27.695Z,8.60
2023-04-26T06:47:01.863Z,8.60
2023-04-26T06:49:28.712Z,8.70
2023-04-26T06:51:55.554Z,8.80
2023-04-26T06:54:22.368Z,8.90
2023-04-26T06:56:49.177Z,9.00
2023-04-26T06:59:16.002Z,9.10
2023-04-26T07:01:42.997Z,9.20
2023-04-26T07:04:12.924Z,9.30
2023-04-26T07:06:39.963Z,9.40
2023-04-26T07:09:08.034Z,9.50
2023-04-26T07:11:35.030Z,9.60
2023-04-26T07:14:02.176Z,9.70
2023-04-26T07:16:29.108Z,9.80
2023-04-26T07:18:58.487Z,9.80
2023-04-26T07:21:26.913Z,9.80
2023-04-26T07:23:55.730Z,9.80
2023-04-26T07:26:23.396Z,9.70
2023-04-26T07:28:53.746Z,9.70
2023-04-26T07:31:21.240Z,9.70
2023-04-26T07:33:48.616Z,9.70
2023-04-26T07:36:15.466Z,9.70
2023-04-26T07:38:42.431Z,9.80
2023-04-26T07:41:09.273Z,10.00
2023-04-26T07:43:36.081Z,10.10
2023-04-26T07:46:03.121Z,10.20
2023-04-26T07:48:30.040Z,10.30
2023-04-26T07:50:57.137Z,10.40
2023-04-26T07:53:24.009Z,10.50
2023-04-26T07:55:54.074Z,10.60
2023-04-26T07:58:21.522Z,10.60
2023-04-26T08:00:48.405Z,10.60
2023-04-26T08:03:17.816Z,10.60
2023-04-26T08:05:45.618Z,10.60
2023-04-26T08:08:12.739Z,10.60
2023-04-26T08:10:42.825Z,10.60
2023-04-26T08:13:09.884Z,10.60
2023-04-26T08:15:36.932Z,10.60
2023-04-26T08:18:04.147Z,10.60
2023-04-26T08:20:32.791Z,10.50
2023-04-26T08:23:00.039Z,10.50
2023-04-26T08:25:27.209Z,10.50
2023-04-26T08:27:54.162Z,10.50
2023-04-26T08:30:21.410Z,10.60
2023-04-26T08:32:48.407Z,10.60
2023-04-26T08:35:15.328Z,10.70
2023-04-26T08:37:42.308Z,10.70
2023-04-26T08:40:12.461Z,10.80
2023-04-26T08:42:44.290Z,10.90
2023-04-26T08:45:11.736Z,10.90
2023-04-26T08:47:57.147Z,10.90
2023-04-26T08:50:24.495Z,10.90
2023-04-26T08:52:52.574Z,10.90
2023-04-26T08:55:21.935Z,10.90
2023-04-26T08:57:50.696Z,10.90
2023-04-26T09:00:18.780Z,10.80
2023-04-26T09:02:53.580Z,10.80
2023-04-26T09:05:24.129Z,10.80
2023-04-26T09:07:53.437Z,10.80
2023-04-26T09:10:22.017Z,10.80
2023-04-26T09:12:56.008Z,10.80
2023-04-26T09:15:24.755Z,10.70
2023-04-26T09:17:52.354Z,10.70
2023-04-26T09:20:28.938Z,10.70
2023-04-26T09:23:05.332Z,10.70
2023-04-26T09:25:33.069Z,10.70
2023-04-26T09:28:00.961Z,10.70
2023-04-26T09:30:28.677Z,10.60
2023-04-26T09:33:04.548Z,10.60
2023-04-26T09:35:38.305Z,10.50
2023-04-26T09:38:14.578Z,10.40
2023-04-26T09:40:49.796Z,10.30
2023-04-26T09:43:21.044Z,10.30
2023-04-26T09:45:53.223Z,10.30
2023-04-26T09:48:22.008Z,10.30
2023-04-26T09:50:52.520Z,10.30
2023-04-26T09:53:31.640Z,10.40
2023-04-26T09:56:07.692Z,10.50
2023-04-26T09:58:36.203Z,10.60
2023-04-26T10:01:04.747Z,10.70
2023-04-26T10:03:34.060Z,10.80
2023-04-26T10:06:01.199Z,10.90
2023-04-26T10:08:28.141Z,11.00
2023-04-26T10:10:55.786Z,11.20
2023-04-26T10:13:22.801Z,11.30
2023-04-26T10:15:49.791Z,11.50
2023-04-26T10:18:17.286Z,11.50
2023-04-26T10:20:48.725Z,11.60
2023-04-26T10:23:27.856Z,11.60
2023-04-26T10:25:55.822Z,11.60
2023-04-26T10:28:41.453Z,11.60
2023-04-26T10:31:08.355Z,11.60
2023-04-26T10:33:35.421Z,11.70
2023-04-26T10:36:08.460Z,11.80
2023-04-26T10:38:37.621Z,11.90
2023-04-26T10:41:30.313Z,12.00
2023-04-26T10:43:57.810Z,12.10
2023-04-26T10:46:39.184Z,12.30
2023-04-26T10:49:24.317Z,12.40
2023-04-26T10:52:12.454Z,12.40
2023-04-26T10:54:59.821Z,12.40
2023-04-26T10:57:50.376Z,12.30
2023-04-26T11:00:18.214Z,12.40
2023-04-26T11:02:57.525Z,12.30
2023-04-26T11:05:53.008Z,12.30
2023-04-26T11:08:26.656Z,12.20
2023-04-26T11:11:09.034Z,12.10
2023-04-26T11:13:36.674Z,12.10
2023-04-26T11:16:05.880Z,12.10
2023-04-26T11:18:33.373Z,12.10
2023-04-26T11:21:00.951Z,12.10
2023-04-26T11:23:29.960Z,12.10
2023-04-26T11:26:02.890Z,12.10
2023-04-26T11:28:33.921Z,12.10
2023-04-26T11:31:02.035Z,12.10
2023-04-26T11:33:28.953Z,12.10
2023-04-26T11:35:57.540Z,12.20
2023-04-26T11:38:28.806Z,12.20
2023-04-26T11:41:05.706Z,12.20
2023-04-26T11:43:32.562Z,12.20
2023-04-26T11:46:03.103Z,12.40
2023-04-26T11:48:31.028Z,12.50
2023-04-26T11:50:59.798Z,12.60
2023-04-26T11:53:39.540Z,12.60
2023-04-26T11:56:16.845Z,12.70
2023-04-26T11:58:48.497Z,12.80
2023-04-26T12:01:26.588Z,12.80
2023-04-26T12:03:58.559Z,12.90
2023-04-26T12:06:42.899Z,13.10
2023-04-26T12:09:11.279Z,13.10
2023-04-26T12:11:38.670Z,13.20
2023-04-26T12:14:06.130Z,13.30
2023-04-26T12:16:35.920Z,13.40
2023-04-26T12:19:07.294Z,13.60
2023-04-26T12:21:44.215Z,13.80
2023-04-26T12:24:37.925Z,14.00
2023-04-26T12:27:08.471Z,14.10
2023-04-26T12:29:36.106Z,14.10
2023-04-26T12:32:04.105Z,14.00
2023-04-26T12:34:31.338Z,13.90
2023-04-26T12:36:58.315Z,13.70
2023-04-26T12:39:25.305Z,13.60
2023-04-26T12:41:52.252Z,13.50
2023-04-26T12:44:21.937Z,13.30
2023-04-26T12:46:49.861Z,13.20
2023-04-26T12:49:16.835Z,13.00
2023-04-26T12:51:43.673Z,12.90
2023-04-26T12:54:10.544Z,12.80
2023-04-26T12:56:43.401Z,12.80
2023-04-26T12:59:10.373Z,12.70
2023-04-26T13:01:37.307Z,12.60
2023-04-26T13:04:05.846Z,12.60
2023-04-26T13:06:33.318Z,12.60
2023-04-26T13:09:00.472Z,12.60
2023-04-26T13:11:27.353Z,12.70
2023-04-26T13:13:54.765Z,12.70
2023-04-26T13:16:21.583Z,12.80
2023-04-26T13:18:48.450Z,12.90
2023-04-26T13:21:15.548Z,12.90
2023-04-26T13:23:42.479Z,13.00
2023-04-26T13:26:09.279Z,13.10
2023-04-26T13:28:37.154Z,13.20
2023-04-26T13:31:04.222Z,13.20
2023-04-26T13:33:31.183Z,13.30
2023-04-26T13:35:58.059Z,13.30
2023-04-26T13:38:26.898Z,13.40
2023-04-26T13:40:53.979Z,13.50
2023-04-26T13:43:21.080Z,13.70
2023-04-26T13:45:48.050Z,13.80
2023-04-26T13:48:15.276Z,13.80
2023-04-26T13:50:42.643Z,13.90
2023-04-26T13:53:09.499Z,13.90
2023-04-26T13:55:36.315Z,13.90
2023-04-26T13:58:03.171Z,13.70
2023-04-26T14:00:30.021Z,13.60
2023-04-26T14:02:57.269Z,13.50
2023-04-26T14:05:24.449Z,13.40
2023-04-26T14:07:53.031Z,13.30
2023-04-26T14:10:21.788Z,13.20
2023-04-26T14:12:48.999Z,13.20
2023-04-26T14:15:16.198Z,13.10
2023-04-26T14:17:43.229Z,13.10
2023-04-26T14:20:10.630Z,13.20
2023-04-26T14:22:37.602Z,13.20
2023-04-26T14:25:04.932Z,13.20
2023-04-26T14:27:31.839Z,13.40
2023-04-26T14:29:58.681Z,13.60
2023-04-26T14:32:25.942Z,13.80
2023-04-26T14:34:52.958Z,14.00
2023-04-26T14:37:22.732Z,14.20
2023-04-26T14:39:50.727Z,14.50
2023-04-26T14:42:17.634Z,14.70
2023-04-26T14:44:46.423Z,14.90
2023-04-26T14:47:13.368Z,15.10
2023-04-26T14:49:40.183Z,15.20
2023-04-26T14:52:06.998Z,15.30
2023-04-26T14:54:38.798Z,15.50
2023-04-26T14:57:05.806Z,15.60
2023-04-26T14:59:33.158Z,15.90
2023-04-26T15:02:00.334Z,16.10
2023-04-26T15:04:27.617Z,16.30
2023-04-26T15:06:54.719Z,16.30
2023-04-26T15:09:21.693Z,16.30
2023-04-26T15:11:48.527Z,16.30
2023-04-26T15:14:15.665Z,16.30
2023-04-26T15:16:42.556Z,16.20
2023-04-26T15:19:09.396Z,16.20
2023-04-26T15:21:36.967Z,16.10
2023-04-26T15:24:04.031Z,16.00
2023-04-26T15:26:31.033Z,15.90
2023-04-26T15:28:58.007Z,15.80
2023-04-26T15:31:24.912Z,15.60
2023-04-26T15:33:54.479Z,15.50
2023-04-26T15:36:22.609Z,15.30
2023-04-26T15:38:49.646Z,15.20
2023-04-26T15:41:16.540Z,15.00
2023-04-26T15:43:43.333Z,14.90
2023-04-26T15:46:13.820Z,14.80
2023-04-26T15:48:40.923Z,14.70
2023-04-26T15:51:07.773Z,14.50
2023-04-26T15:53:34.571Z,14.40
2023-04-26T15:56:01.462Z,14.20
2023-04-26T15:58:28.565Z,14.10
2023-04-26T16:00:55.394Z,14.10
2023-04-26T16:03:22.474Z,14.00
2023-04-26T16:05:49.602Z,14.00
2023-04-26T16:08:24.565Z,14.00
2023-04-26T16:11:03.504Z,14.00
2023-04-26T16:13:30.629Z,14.00
2023-04-26T16:15:57.728Z,14.00
2023-04-26T16:18:24.692Z,14.10
2023-04-26T16:20:51.500Z,14.10
2023-04-26T16:23:18.649Z,14.20
2023-04-26T16:25:45.636Z,14.30
2023-04-26T16:28:12.640Z,14.30
2023-04-26T16:30:39.691Z,14.30
2023-04-26T16:33:10.126Z,14.30
2023-04-26T16:35:37.133Z,14.40
2023-04-26T16:38:03.957Z,14.30
2023-04-26T16:40:30.867Z,14.30
2023-04-26T16:42:57.721Z,14.30
2023-04-26T16:45:24.600Z,14.20
2023-04-26T16:47:51.496Z,14.20
2023-04-26T16:50:18.484Z,14.10
2023-04-26T16:52:45.908Z,14.10
2023-04-26T16:55:12.904Z,14.10
2023-04-26T16:57:39.753Z,14.00
2023-04-26T17:00:11.308Z,14.00
2023-04-26T17:02:40.283Z,14.00
2023-04-26T17:05:07.748Z,14.00
2023-04-26T17:07:36.085Z,14.00
2023-04-26T17:10:03.887Z,14.00
2023-04-26T17:12:30.742Z,14.00
2023-04-26T17:14:57.577Z,14.10
2023-04-26T17:17:24.377Z,14.10
2023-04-26T17:19:51.203Z,14.10
2023-04-26T17:22:18.062Z,14.20
2023-04-26T17:24:44.902Z,14.20
2023-04-26T17:27:11.927Z,14.20
2023-04-26T17:29:38.801Z,14.20
2023-04-26T17:32:05.923Z,14.20
2023-04-26T17:34:32.712Z,14.20
2023-04-26T17:36:59.551Z,14.20
2023-04-26T17:39:26.500Z,14.20
2023-04-26T17:41:53.342Z,14.10
2023-04-26T17:44:20.142Z,14.10
2023-04-26T17:46:47.051Z,14.10
2023-04-26T17:49:13.870Z,14.00
2023-04-26T17:51:40.794Z,13.90
2023-04-26T17:54:08.283Z,13.90
2023-04-26T17:56:35.161Z,13.80
2023-04-26T17:59:03.681Z,13.70
2023-04-26T18:01:30.749Z,13.60
2023-04-26T18:03:58.364Z,13.60
2023-04-26T18:06:25.480Z,13.50
2023-04-26T18:08:52.750Z,13.50
2023-04-26T18:11:21.087Z,13.40
2023-04-26T18:13:48.781Z,13.40
2023-04-26T18:16:17.060Z,13.30
2023-04-26T18:18:44.134Z,13.30
2023-04-26T18:21:11.615Z,13.30
2023-04-26T18:23:38.725Z,13.30
2023-04-26T18:26:05.557Z,13.30
2023-04-26T18:28:32.358Z,13.20
2023-04-26T18:31:00.209Z,13.20
2023-04-26T18:33:28.531Z,13.20
2023-04-26T18:35:55.552Z,13.10
2023-04-26T18:38:22.427Z,13.10
2023-04-26T18:40:49.974Z,13.10
2023-04-26T18:43:16.976Z,13.00
2023-04-26T18:45:44.225Z,13.00
2023-04-26T18:48:11.914Z,13.00
2023-04-26T18:50:38.798Z,12.90
2023-04-26T18:53:05.740Z,12.90
2023-04-26T18:55:32.744Z,12.90
2023-04-26T18:57:59.557Z,12.90
2023-04-26T19:00:26.751Z,12.80
2023-04-26T19:02:54.732Z,12.80
2023-04-26T19:05:21.862Z,12.80
2023-04-26T19:07:52.918Z,12.80
2023-04-26T19:10:20.175Z,12.70
2023-04-26T19:12:47.885Z,12.70
2023-04-26T19:15:14.869Z,12.60
2023-04-26T19:17:41.813Z,12.60
2023-04-26T19:20:12.384Z,12.60
2023-04-26T19:22:41.773Z,12.50
2023-04-26T19:25:09.136Z,12.50
2023-04-26T19:27:35.948Z,12.50
2023-04-26T19:30:02.817Z,12.40
2023-04-26T19:32:29.709Z,12.40
2023-04-26T19:34:56.787Z,12.30
2023-04-26T19:37:23.678Z,12.30
2023-04-26T19:39:50.577Z,12.30
2023-04-26T19:42:17.387Z,12.20
2023-04-26T19:44:44.241Z,12.10
2023-04-26T19:47:11.309Z,12.10
2023-04-26T19:49:38.302Z,12.00
2023-04-26T19:52:05.112Z,12.00
2023-04-26T19:54:32.388Z,11.90
2023-04-26T19:56:59.281Z,11.90
2023-04-26T19:59:26.375Z,11.80
2023-04-26T20:01:54.046Z,11.80
2023-04-26T20:04:21.378Z,11.70
2023-04-26T20:06:48.442Z,11.60
2023-04-26T20:09:16.724Z,11.60
2023-04-26T20:11:43.628Z,11.50
2023-04-26T20:14:10.415Z,11.50
2023-04-26T20:16:37.520Z,11.40
2023-04-26T20:19:04.785Z,11.30
2023-04-26T20:21:32.516Z,11.20
2023-04-26T20:23:59.661Z,11.20
2023-04-26T20:26:26.699Z,11.10
2023-04-26T20:28:53.573Z,11.10
2023-04-26T20:31:20.478Z,11.00
2023-04-26T20:33:47.328Z,11.00
2023-04-26T20:36:14.364Z,10.90
2023-04-26T20:38:41.359Z,10.80
2023-04-26T20:41:08.215Z,10.80
2023-04-26T20:43:35.381Z,10.80
2023-04-26T20:46:02.270Z,10.70
2023-04-26T20:48:29.162Z,10.70
2023-04-26T20:50:57.230Z,10.60
2023-04-26T20:53:24.401Z,10.60
2023-04-26T20:55:54.604Z,10.50
2023-04-26T20:58:21.415Z,10.50
2023-04-26T21:00:55.639Z,10.40
2023-04-26T21:03:22.918Z,10.40
2023-04-26T21:05:50.051Z,10.30
2023-04-26T21:08:16.911Z,10.30
2023-04-26T21:10:43.666Z,10.30
2023-04-26T21:13:10.512Z,10.20
2023-04-26T21:15:37.339Z,10.20
2023-04-26T21:18:04.493Z,10.10
2023-04-26T21:20:31.457Z,10.10
2023-04-26T21:22:58.309Z,10.10
2023-04-26T21:25:25.128Z,10.00
2023-04-26T21:27:52.008Z,10.00
2023-04-26T21:30:19.197Z,9.90
2023-04-26T21:32:46.331Z,9.90
2023-04-26T21:35:13.318Z,9.80
2023-04-26T21:37:40.203Z,9.80
2023-04-26T21:40:08.038Z,9.80
2023-04-26T21:42:34.930Z,9.70
2023-04-26T21:45:01.794Z,9.70
2023-04-26T21:47:28.698Z,9.70
2023-04-26T21:49:55.855Z,9.60
2023-04-26T21:52:22.644Z,9.60
2023-04-26T21:54:50.636Z,9.50
2023-04-26T21:57:21.472Z,9.50
2023-04-26T21:59:48.308Z,9.40
2023-04-26T22:02:15.443Z,9.40
2023-04-26T22:04:42.359Z,9.30
2023-04-26T22:07:09.228Z,9.30
2023-04-26T22:09:36.016Z,9.20
2023-04-26T22:12:03.687Z,9.10
2023-04-26T22:14:31.465Z,9.10
2023-04-26T22:16:58.414Z,9.00
2023-04-26T22:19:25.290Z,8.90
2023-04-26T22:21:53.869Z,8.90
2023-04-26T22:24:21.904Z,8.90
2023-04-26T22:26:48.898Z,8.80
2023-04-26T22:29:16.303Z,8.80
2023-04-26T22:31:43.194Z,8.70
2023-04-26T22:34:10.031Z,8.70
2023-04-26T22:36:36.815Z,8.60
2023-04-26T22:39:03.796Z,8.60
2023-04-26T22:41:30.800Z,8.50
2023-04-26T22:43:57.592Z,8.40
2023-04-26T22:46:24.483Z,8.40
2023-04-26T22:48:51.332Z,8.40
2023-04-26T22:51:18.093Z,8.30
2023-04-26T22:53:44.911Z,8.30
2023-04-26T22:56:11.796Z,8.30
2023-04-26T22:58:38.652Z,8.30
2023-04-26T23:01:05.589Z,8.30
2023-04-26T23:03:36.826Z,8.20
2023-04-26T23:06:05.143Z,8.30
2023-04-26T23:08:32.033Z,8.20
2023-04-26T23:10:58.907Z,8.20
2023-04-26T23:13:25.696Z,8.20
2023-04-26T23:15:52.743Z,8.20
2023-04-26T23:18:19.714Z,8.20
2023-04-26T23:20:46.527Z,8.20
2023-04-26T23:23:13.382Z,8.20
2023-04-26T23:25:42.166Z,8.20
2023-04-26T23:28:09.309Z,8.10
2023-04-26T23:30:36.258Z,8.10
2023-04-26T23:33:03.162Z,8.10
2023-04-26T23:35:30.125Z,8.10
2023-04-26T23:37:57.193Z,8.10
2023-04-26T23:40:24.080Z,8.00
2023-04-26T23:42:51.213Z,8.00
2023-04-26T23:45:19.238Z,8.00
2023-04-26T23:47:46.097Z,8.00
2023-04-26T23:50:12.975Z,7.90
2023-04-26T23:52:39.877Z,7.90
2023-04-26T23:55:08.066Z,7.90
2023-04-26T23:57:35.060Z,7.90
